Trapezitza — 9HAZ8 — position and weather

sailwx.info

Track history (hours):
 
Tides and Currents Weather Stations Pressure Air Temp Water Temp Dewpoint Dewpoint Depression Visibility Wind Speed Wind Dir Waves Ship Positions

Trapezitza

Last reported at 2017-Sep-19 22:43 UTC. Time now 2017-Sep-22 20:54 UTC.
Position N 40°21' E 027°58'.

Length 169 m; draft 8.8 m.

Type: Cargo ship. MMSI: 249637000.

Date/timePositionNaut miles runAvg speedWind from/ knotsBaromVisibWave heightAir tempDewpointWater temp
2017-Sep-19 22:43N 40°21' E 027°58'0 0.0
2017-Sep-19 22:30N 40°21' E 027°58'12 0.6
2017-Sep-19 00:52N 40°34' E 027°57'86 9.4
2017-Sep-18 15:44N 40°01' E 026°13'1 5.9
2017-Sep-18 15:30N 40°01' E 026°11'4 8.0
2017-Sep-18 14:59N 40°00' E 026°06'510.3
2017-Sep-18 14:28N 39°58' E 025°59'510.6
2017-Sep-18 14:00N 39°54' E 025°55'510.5
2017-Sep-18 13:30N 39°50' E 025°51'5512.0
2017-Sep-18 08:56N 39°00' E 025°21'1912.0
2017-Sep-18 07:21N 38°44' E 025°09'611.8
2017-Sep-18 06:49N 38°38' E 025°06'7611.9
2017-Sep-18 00:27N 37°36' E 024°11'612.0
2017-Sep-17 23:59N 37°31' E 024°07'611.6
2017-Sep-17 23:30N 37°26' E 024°04'612.2
2017-Sep-17 23:00N 37°21' E 023°60'612.7
2017-Sep-17 22:30N 37°16' E 023°55'712.7
2017-Sep-17 21:59N 37°10' E 023°51'612.5
2017-Sep-17 21:30N 37°05' E 023°46'8810.8
2017-Sep-17 13:23N 36°19' E 022°13'512.5
2017-Sep-17 13:00N 36°19' E 022°07'612.5
2017-Sep-17 12:30N 36°19' E 021°59'612.6
2017-Sep-17 12:01N 36°19' E 021°51'812.6
2017-Sep-17 11:22N 36°19' E 021°41'512.6
2017-Sep-17 11:00N 36°20' E 021°36'612.5
2017-Sep-17 10:30N 36°20' E 021°28'612.2
2017-Sep-17 10:00N 36°21' E 021°20'612.2
2017-Sep-17 09:28N 36°21' E 021°12'612.1
2017-Sep-17 09:00N 36°21' E 021°05'612.0
2017-Sep-17 08:30N 36°21' E 020°58'612.1
2017-Sep-17 08:00N 36°20' E 020°50'612.0
2017-Sep-17 07:30N 36°20' E 020°43'611.9
2017-Sep-17 07:00N 36°20' E 020°36'612.1
2017-Sep-17 06:30N 36°20' E 020°28'612.0
2017-Sep-17 05:59N 36°21' E 020°20'612.0
2017-Sep-17 05:30N 36°20' E 020°13'611.9
2017-Sep-17 05:00N 36°20' E 020°06'611.9
2017-Sep-17 04:30N 36°20' E 019°58'611.9
2017-Sep-17 04:00N 36°20' E 019°51'611.8
2017-Sep-17 03:30N 36°20' E 019°44'611.7
2017-Sep-17 03:00N 36°20' E 019°36'611.5
2017-Sep-17 02:30N 36°20' E 019°29'611.5
2017-Sep-17 02:00N 36°20' E 019°22'611.5
2017-Sep-17 01:30N 36°21' E 019°15'611.7
2017-Sep-17 01:00N 36°21' E 019°08'611.5
2017-Sep-17 00:30N 36°21' E 019°01'611.4
2017-Sep-17 00:00N 36°21' E 018°54'611.5
2017-Sep-16 23:30N 36°21' E 018°46'611.7
2017-Sep-16 23:00N 36°21' E 018°39'611.8
2017-Sep-16 22:30N 36°21' E 018°32'611.9
2017-Sep-16 22:00N 36°21' E 018°25'611.9
2017-Sep-16 21:30N 36°21' E 018°17'612.0
2017-Sep-16 21:00N 36°21' E 018°10'612.0
2017-Sep-16 20:30N 36°21' E 018°02'611.8
2017-Sep-16 20:00N 36°21' E 017°55'611.8
2017-Sep-16 19:30N 36°21' E 017°48'611.8
2017-Sep-16 19:00N 36°21' E 017°40'611.7
2017-Sep-16 18:31N 36°21' E 017°33'611.8
2017-Sep-16 18:00N 36°21' E 017°26'611.6
2017-Sep-16 17:30N 36°21' E 017°19'611.7
2017-Sep-16 17:00N 36°21' E 017°11'612.0
2017-Sep-16 16:30N 36°21' E 017°04'612.1
2017-Sep-16 16:01N 36°21' E 016°56'612.2
2017-Sep-16 15:30N 36°21' E 016°49'612.1
2017-Sep-16 15:00N 36°22' E 016°41'612.2
2017-Sep-16 14:30N 36°22' E 016°34'612.2
2017-Sep-16 14:01N 36°22' E 016°26'612.1
2017-Sep-16 13:30N 36°22' E 016°18'612.0
2017-Sep-16 12:59N 36°22' E 016°11'612.0
2017-Sep-16 12:30N 36°23' E 016°04'611.7
2017-Sep-16 12:00N 36°23' E 015°56'611.5
2017-Sep-16 11:30N 36°23' E 015°49'611.2
2017-Sep-16 11:00N 36°23' E 015°42'511.2
2017-Sep-16 10:30N 36°22' E 015°35'611.3
2017-Sep-16 10:00N 36°22' E 015°28'611.5
2017-Sep-16 09:30N 36°21' E 015°21'612.0
2017-Sep-16 09:00N 36°21' E 015°14'612.3
2017-Sep-16 08:30N 36°22' E 015°06'612.4
2017-Sep-16 08:00N 36°22' E 014°59'612.4
2017-Sep-16 07:30N 36°22' E 014°51'612.6
2017-Sep-16 07:00N 36°24' E 014°43'612.5
2017-Sep-16 06:30N 36°25' E 014°36'612.2
2017-Sep-16 06:00N 36°27' E 014°28'612.0
2017-Sep-16 05:30N 36°28' E 014°21'612.0
2017-Sep-16 05:00N 36°29' E 014°14'612.0
2017-Sep-16 04:30N 36°31' E 014°07'612.1
2017-Sep-16 04:00N 36°33' E 013°60'612.0
2017-Sep-16 03:30N 36°35' E 013°53'612.0
2017-Sep-16 03:00N 36°37' E 013°46'612.1
2017-Sep-16 02:30N 36°38' E 013°38'612.3
2017-Sep-16 02:00N 36°40' E 013°31'612.2
2017-Sep-16 01:30N 36°42' E 013°24'612.1
2017-Sep-16 01:00N 36°43' E 013°16'612.0
2017-Sep-16 00:30N 36°45' E 013°09'611.9
2017-Sep-16 00:00N 36°46' E 013°02'611.9
2017-Sep-15 23:30N 36°48' E 012°55'611.8
2017-Sep-15 23:00N 36°50' E 012°48'611.9
2017-Sep-15 22:30N 36°51' E 012°41'612.0
2017-Sep-15 22:00N 36°53' E 012°33'611.9
2017-Sep-15 21:30N 36°54' E 012°26'611.8
2017-Sep-15 21:00N 36°56' E 012°19'612.2
2017-Sep-15 20:30N 36°57' E 012°11'612.3
2017-Sep-15 20:00N 36°59' E 012°04'612.2
2017-Sep-15 19:30N 37°00' E 011°57'611.9
2017-Sep-15 19:00N 37°03' E 011°50'611.6
2017-Sep-15 18:30N 37°05' E 011°43'611.4
2017-Sep-15 18:00N 37°08' E 011°37'611.6
2017-Sep-15 17:30N 37°11' E 011°31'611.7
2017-Sep-15 17:00N 37°14' E 011°24'611.6
2017-Sep-15 16:30N 37°17' E 011°18'611.4
2017-Sep-15 16:00N 37°20' E 011°12'611.4
2017-Sep-15 15:30N 37°23' E 011°06'611.2
2017-Sep-15 15:00N 37°25' E 010°60'611.3
2017-Sep-15 14:30N 37°26' E 010°53'611.5
2017-Sep-15 14:00N 37°28' E 010°46'611.6
2017-Sep-15 13:30N 37°29' E 010°39'611.7
2017-Sep-15 13:00N 37°30' E 010°31'712.0
2017-Sep-15 12:27N 37°32' E 010°23'612.5
2017-Sep-15 12:00N 37°33' E 010°17'612.5
2017-Sep-15 11:30N 37°34' E 010°09'612.6
2017-Sep-15 11:00N 37°33' E 010°00'1912.5
2017-Sep-15 09:30N 37°30' E 009°37'1612.6
2017-Sep-15 08:15N 37°26' E 009°18'17012.1
2017-Sep-14 18:14N 37°17' E 005°45'812.2
2017-Sep-14 17:37N 37°16' E 005°35'112.1
2017-Sep-14 17:30N 37°16' E 005°34'612.0
2017-Sep-14 17:00N 37°15' E 005°26'612.1
2017-Sep-14 16:30N 37°14' E 005°19'612.3
2017-Sep-14 16:00N 37°13' E 005°11'812.3
2017-Sep-14 15:22N 37°12' E 005°01'512.3
2017-Sep-14 14:58N 37°12' E 004°55'612.5
2017-Sep-14 14:29N 37°11' E 004°48'612.5
2017-Sep-14 14:00N 37°11' E 004°40'612.6
2017-Sep-14 13:30N 37°10' E 004°32'612.6
2017-Sep-14 13:00N 37°09' E 004°25'612.5
2017-Sep-14 12:30N 37°09' E 004°17'612.4
2017-Sep-14 11:59N 37°08' E 004°09'612.3
2017-Sep-14 11:30N 37°07' E 004°01'612.3
2017-Sep-14 11:00N 37°06' E 003°54'612.2
2017-Sep-14 10:30N 37°06' E 003°46'612.3
2017-Sep-14 10:00N 37°05' E 003°38'612.4
2017-Sep-14 09:29N 37°03' E 003°31'612.4
2017-Sep-14 09:00N 37°03' E 003°23'612.6
2017-Sep-14 08:30N 37°01' E 003°16'612.5
2017-Sep-14 08:00N 37°00' E 003°08'612.5
2017-Sep-14 07:30N 36°59' E 003°00'712.5
2017-Sep-14 06:57N 36°58' E 002°52'612.5
2017-Sep-14 06:30N 36°57' E 002°45'612.5
2017-Sep-14 06:00N 36°56' E 002°37'812.3
2017-Sep-14 05:23N 36°55' E 002°28'512.1
2017-Sep-14 04:58N 36°54' E 002°21'611.9
2017-Sep-14 04:30N 36°54' E 002°14'611.7
2017-Sep-14 04:00N 36°53' E 002°07'811.5
2017-Sep-14 03:21N 36°52' E 001°58'411.4
2017-Sep-14 03:00N 36°52' E 001°53'611.3
2017-Sep-14 02:30N 36°51' E 001°46'611.3
2017-Sep-14 02:00N 36°50' E 001°39'611.2
2017-Sep-14 01:30N 36°49' E 001°32'711.3
2017-Sep-14 00:50N 36°48' E 001°23'411.5
2017-Sep-14 00:30N 36°48' E 001°18'611.5
2017-Sep-14 00:00N 36°47' E 001°11'611.6
2017-Sep-13 23:28N 36°46' E 001°03'511.7
2017-Sep-13 23:00N 36°45' E 000°57'611.7
2017-Sep-13 22:30N 36°44' E 000°49'611.6
2017-Sep-13 22:00N 36°43' E 000°42'611.4
2017-Sep-13 21:30N 36°42' E 000°35'611.4
2017-Sep-13 21:00N 36°41' E 000°28'611.3
2017-Sep-13 20:30N 36°40' E 000°21'611.3
2017-Sep-13 20:00N 36°40' E 000°14'711.3
2017-Sep-13 19:25N 36°39' E 000°06'511.3
2017-Sep-13 18:59N 36°38' E 000°00'611.3
2017-Sep-13 18:30N 36°37' W 000°07'611.3
2017-Sep-13 18:00N 36°36' W 000°13'611.3
2017-Sep-13 17:30N 36°35' W 000°20'611.3
2017-Sep-13 17:00N 36°34' W 000°27'611.2
2017-Sep-13 16:30N 36°34' W 000°34'611.1
2017-Sep-13 15:59N 36°33' W 000°41'610.9
2017-Sep-13 15:29N 36°32' W 000°48'511.0
2017-Sep-13 15:00N 36°31' W 000°55'611.1
2017-Sep-13 14:30N 36°30' W 001°01'611.5
2017-Sep-13 13:59N 36°29' W 001°09'611.8
2017-Sep-13 13:29N 36°28' W 001°16'18912.2
2017-Sep-12 21:57N 36°00' W 005°07'612.7
2017-Sep-12 21:30N 35°59' W 005°14'612.9
2017-Sep-12 21:00N 35°58' W 005°22'612.5
2017-Sep-12 20:30N 35°57' W 005°30'7312.0
2017-Sep-12 14:26N 35°58' W 006°60'6810.8
2017-Sep-12 08:09N 36°07' W 008°22'0 0.9
2017-Sep-12 07:59N 36°07' W 008°22'0 0.7
2017-Sep-12 07:30N 36°07' W 008°23'1 2.8
2017-Sep-12 07:00N 36°08' W 008°24'611.6
2017-Sep-12 06:30N 36°11' W 008°30'611.4
2017-Sep-12 06:00N 36°14' W 008°36'1711.4
2017-Sep-12 04:33N 36°23' W 008°53'211.7
2017-Sep-12 04:24N 36°24' W 008°55'511.9
2017-Sep-12 04:00N 36°27' W 008°59'611.6
2017-Sep-12 03:30N 36°30' W 009°06'611.3
2017-Sep-12 03:00N 36°33' W 009°12'510.6
2017-Sep-12 02:30N 36°35' W 009°18'510.5
2017-Sep-12 02:00N 36°39' W 009°22'611.2
2017-Sep-12 01:30N 36°43' W 009°27'611.2
2017-Sep-12 01:00N 36°47' W 009°31'611.5
2017-Sep-12 00:30N 36°52' W 009°34'611.7
2017-Sep-12 00:00N 36°58' W 009°36'611.7
2017-Sep-11 23:30N 37°04' W 009°39'611.5
2017-Sep-11 23:00N 37°09' W 009°41'611.6
2017-Sep-11 22:30N 37°15' W 009°43'612.1
2017-Sep-11 22:00N 37°21' W 009°45'612.0
2017-Sep-11 21:30N 37°26' W 009°46'612.0
2017-Sep-11 21:00N 37°32' W 009°48'611.9
2017-Sep-11 20:30N 37°38' W 009°50'611.7
2017-Sep-11 20:00N 37°44' W 009°52'611.6
2017-Sep-11 19:30N 37°49' W 009°53'611.5
2017-Sep-11 19:00N 37°55' W 009°55'611.7
2017-Sep-11 18:30N 38°01' W 009°56'611.5
2017-Sep-11 18:00N 38°06' W 009°57'611.8
2017-Sep-11 17:30N 38°12' W 009°58'611.6
2017-Sep-11 17:00N 38°18' W 009°59'611.7
2017-Sep-11 16:30N 38°24' W 010°01'612.0
2017-Sep-11 16:00N 38°30' W 010°03'612.7
2017-Sep-11 15:30N 38°36' W 010°04'612.4
2017-Sep-11 15:00N 38°42' W 010°06'612.0
2017-Sep-11 14:30N 38°48' W 010°06'611.7
2017-Sep-11 14:00N 38°54' W 010°06'611.9
2017-Sep-11 13:30N 38°60' W 010°06'612.0
2017-Sep-11 13:00N 39°06' W 010°06'611.8
2017-Sep-11 12:30N 39°12' W 010°06'611.8
2017-Sep-11 12:00N 39°17' W 010°06'611.8
2017-Sep-11 11:30N 39°23' W 010°07'  
Track history (hours):
 
Tides and Currents Weather Stations Pressure Air Temp Water Temp Dewpoint Dewpoint Depression Visibility Wind Speed Wind Dir Waves Ship Positions

Trapezitza

Last reported at 2017-Sep-19 22:43 UTC. Time now 2017-Sep-22 20:54 UTC.
Position N 40°21' E 027°58'.

Length 169 m; draft 8.8 m.

Type: Cargo ship. MMSI: 249637000.

Date/timePositionNaut miles runAvg speedWind from/ knotsBaromVisibWave heightAir tempDewpointWater temp
2017-Sep-19 22:43N 40°21' E 027°58'0 0.0
2017-Sep-19 22:30N 40°21' E 027°58'12 0.6
2017-Sep-19 00:52N 40°34' E 027°57'86 9.4
2017-Sep-18 15:44N 40°01' E 026°13'1 5.9
2017-Sep-18 15:30N 40°01' E 026°11'4 8.0
2017-Sep-18 14:59N 40°00' E 026°06'510.3
2017-Sep-18 14:28N 39°58' E 025°59'510.6
2017-Sep-18 14:00N 39°54' E 025°55'510.5
2017-Sep-18 13:30N 39°50' E 025°51'5512.0
2017-Sep-18 08:56N 39°00' E 025°21'1912.0
2017-Sep-18 07:21N 38°44' E 025°09'611.8
2017-Sep-18 06:49N 38°38' E 025°06'7611.9
2017-Sep-18 00:27N 37°36' E 024°11'612.0
2017-Sep-17 23:59N 37°31' E 024°07'611.6
2017-Sep-17 23:30N 37°26' E 024°04'612.2
2017-Sep-17 23:00N 37°21' E 023°60'612.7
2017-Sep-17 22:30N 37°16' E 023°55'712.7
2017-Sep-17 21:59N 37°10' E 023°51'612.5
2017-Sep-17 21:30N 37°05' E 023°46'8810.8
2017-Sep-17 13:23N 36°19' E 022°13'512.5
2017-Sep-17 13:00N 36°19' E 022°07'612.5
2017-Sep-17 12:30N 36°19' E 021°59'612.6
2017-Sep-17 12:01N 36°19' E 021°51'812.6
2017-Sep-17 11:22N 36°19' E 021°41'512.6
2017-Sep-17 11:00N 36°20' E 021°36'612.5
2017-Sep-17 10:30N 36°20' E 021°28'612.2
2017-Sep-17 10:00N 36°21' E 021°20'612.2
2017-Sep-17 09:28N 36°21' E 021°12'612.1
2017-Sep-17 09:00N 36°21' E 021°05'612.0
2017-Sep-17 08:30N 36°21' E 020°58'612.1
2017-Sep-17 08:00N 36°20' E 020°50'612.0
2017-Sep-17 07:30N 36°20' E 020°43'611.9
2017-Sep-17 07:00N 36°20' E 020°36'612.1
2017-Sep-17 06:30N 36°20' E 020°28'612.0
2017-Sep-17 05:59N 36°21' E 020°20'612.0
2017-Sep-17 05:30N 36°20' E 020°13'611.9
2017-Sep-17 05:00N 36°20' E 020°06'611.9
2017-Sep-17 04:30N 36°20' E 019°58'611.9
2017-Sep-17 04:00N 36°20' E 019°51'611.8
2017-Sep-17 03:30N 36°20' E 019°44'611.7
2017-Sep-17 03:00N 36°20' E 019°36'611.5
2017-Sep-17 02:30N 36°20' E 019°29'611.5
2017-Sep-17 02:00N 36°20' E 019°22'611.5
2017-Sep-17 01:30N 36°21' E 019°15'611.7
2017-Sep-17 01:00N 36°21' E 019°08'611.5
2017-Sep-17 00:30N 36°21' E 019°01'611.4
2017-Sep-17 00:00N 36°21' E 018°54'611.5
2017-Sep-16 23:30N 36°21' E 018°46'611.7
2017-Sep-16 23:00N 36°21' E 018°39'611.8
2017-Sep-16 22:30N 36°21' E 018°32'611.9
2017-Sep-16 22:00N 36°21' E 018°25'611.9
2017-Sep-16 21:30N 36°21' E 018°17'612.0
2017-Sep-16 21:00N 36°21' E 018°10'612.0
2017-Sep-16 20:30N 36°21' E 018°02'611.8
2017-Sep-16 20:00N 36°21' E 017°55'611.8
2017-Sep-16 19:30N 36°21' E 017°48'611.8
2017-Sep-16 19:00N 36°21' E 017°40'611.7
2017-Sep-16 18:31N 36°21' E 017°33'611.8
2017-Sep-16 18:00N 36°21' E 017°26'611.6
2017-Sep-16 17:30N 36°21' E 017°19'611.7
2017-Sep-16 17:00N 36°21' E 017°11'612.0
2017-Sep-16 16:30N 36°21' E 017°04'612.1
2017-Sep-16 16:01N 36°21' E 016°56'612.2
2017-Sep-16 15:30N 36°21' E 016°49'612.1
2017-Sep-16 15:00N 36°22' E 016°41'612.2
2017-Sep-16 14:30N 36°22' E 016°34'612.2
2017-Sep-16 14:01N 36°22' E 016°26'612.1
2017-Sep-16 13:30N 36°22' E 016°18'612.0
2017-Sep-16 12:59N 36°22' E 016°11'612.0
2017-Sep-16 12:30N 36°23' E 016°04'611.7
2017-Sep-16 12:00N 36°23' E 015°56'611.5
2017-Sep-16 11:30N 36°23' E 015°49'611.2
2017-Sep-16 11:00N 36°23' E 015°42'511.2
2017-Sep-16 10:30N 36°22' E 015°35'611.3
2017-Sep-16 10:00N 36°22' E 015°28'611.5
2017-Sep-16 09:30N 36°21' E 015°21'612.0
2017-Sep-16 09:00N 36°21' E 015°14'612.3
2017-Sep-16 08:30N 36°22' E 015°06'612.4
2017-Sep-16 08:00N 36°22' E 014°59'612.4
2017-Sep-16 07:30N 36°22' E 014°51'612.6
2017-Sep-16 07:00N 36°24' E 014°43'612.5
2017-Sep-16 06:30N 36°25' E 014°36'612.2
2017-Sep-16 06:00N 36°27' E 014°28'612.0
2017-Sep-16 05:30N 36°28' E 014°21'612.0
2017-Sep-16 05:00N 36°29' E 014°14'612.0
2017-Sep-16 04:30N 36°31' E 014°07'612.1
2017-Sep-16 04:00N 36°33' E 013°60'612.0
2017-Sep-16 03:30N 36°35' E 013°53'612.0
2017-Sep-16 03:00N 36°37' E 013°46'612.1
2017-Sep-16 02:30N 36°38' E 013°38'612.3
2017-Sep-16 02:00N 36°40' E 013°31'612.2
2017-Sep-16 01:30N 36°42' E 013°24'612.1
2017-Sep-16 01:00N 36°43' E 013°16'612.0
2017-Sep-16 00:30N 36°45' E 013°09'611.9
2017-Sep-16 00:00N 36°46' E 013°02'611.9
2017-Sep-15 23:30N 36°48' E 012°55'611.8
2017-Sep-15 23:00N 36°50' E 012°48'611.9
2017-Sep-15 22:30N 36°51' E 012°41'612.0
2017-Sep-15 22:00N 36°53' E 012°33'611.9
2017-Sep-15 21:30N 36°54' E 012°26'611.8
2017-Sep-15 21:00N 36°56' E 012°19'612.2
2017-Sep-15 20:30N 36°57' E 012°11'612.3
2017-Sep-15 20:00N 36°59' E 012°04'612.2
2017-Sep-15 19:30N 37°00' E 011°57'611.9
2017-Sep-15 19:00N 37°03' E 011°50'611.6
2017-Sep-15 18:30N 37°05' E 011°43'611.4
2017-Sep-15 18:00N 37°08' E 011°37'611.6
2017-Sep-15 17:30N 37°11' E 011°31'611.7
2017-Sep-15 17:00N 37°14' E 011°24'611.6
2017-Sep-15 16:30N 37°17' E 011°18'611.4
2017-Sep-15 16:00N 37°20' E 011°12'611.4
2017-Sep-15 15:30N 37°23' E 011°06'611.2
2017-Sep-15 15:00N 37°25' E 010°60'611.3
2017-Sep-15 14:30N 37°26' E 010°53'611.5
2017-Sep-15 14:00N 37°28' E 010°46'611.6
2017-Sep-15 13:30N 37°29' E 010°39'611.7
2017-Sep-15 13:00N 37°30' E 010°31'712.0
2017-Sep-15 12:27N 37°32' E 010°23'612.5
2017-Sep-15 12:00N 37°33' E 010°17'612.5
2017-Sep-15 11:30N 37°34' E 010°09'612.6
2017-Sep-15 11:00N 37°33' E 010°00'1912.5
2017-Sep-15 09:30N 37°30' E 009°37'1612.6
2017-Sep-15 08:15N 37°26' E 009°18'17012.1
2017-Sep-14 18:14N 37°17' E 005°45'812.2
2017-Sep-14 17:37N 37°16' E 005°35'112.1
2017-Sep-14 17:30N 37°16' E 005°34'612.0
2017-Sep-14 17:00N 37°15' E 005°26'612.1
2017-Sep-14 16:30N 37°14' E 005°19'612.3
2017-Sep-14 16:00N 37°13' E 005°11'812.3
2017-Sep-14 15:22N 37°12' E 005°01'512.3
2017-Sep-14 14:58N 37°12' E 004°55'612.5
2017-Sep-14 14:29N 37°11' E 004°48'612.5
2017-Sep-14 14:00N 37°11' E 004°40'612.6
2017-Sep-14 13:30N 37°10' E 004°32'612.6
2017-Sep-14 13:00N 37°09' E 004°25'612.5
2017-Sep-14 12:30N 37°09' E 004°17'612.4
2017-Sep-14 11:59N 37°08' E 004°09'612.3
2017-Sep-14 11:30N 37°07' E 004°01'612.3
2017-Sep-14 11:00N 37°06' E 003°54'612.2
2017-Sep-14 10:30N 37°06' E 003°46'612.3
2017-Sep-14 10:00N 37°05' E 003°38'612.4
2017-Sep-14 09:29N 37°03' E 003°31'612.4
2017-Sep-14 09:00N 37°03' E 003°23'612.6
2017-Sep-14 08:30N 37°01' E 003°16'612.5
2017-Sep-14 08:00N 37°00' E 003°08'612.5
2017-Sep-14 07:30N 36°59' E 003°00'712.5
2017-Sep-14 06:57N 36°58' E 002°52'612.5
2017-Sep-14 06:30N 36°57' E 002°45'612.5
2017-Sep-14 06:00N 36°56' E 002°37'812.3
2017-Sep-14 05:23N 36°55' E 002°28'512.1
2017-Sep-14 04:58N 36°54' E 002°21'611.9
2017-Sep-14 04:30N 36°54' E 002°14'611.7
2017-Sep-14 04:00N 36°53' E 002°07'811.5
2017-Sep-14 03:21N 36°52' E 001°58'411.4
2017-Sep-14 03:00N 36°52' E 001°53'611.3
2017-Sep-14 02:30N 36°51' E 001°46'611.3
2017-Sep-14 02:00N 36°50' E 001°39'611.2
2017-Sep-14 01:30N 36°49' E 001°32'711.3
2017-Sep-14 00:50N 36°48' E 001°23'411.5
2017-Sep-14 00:30N 36°48' E 001°18'611.5
2017-Sep-14 00:00N 36°47' E 001°11'611.6
2017-Sep-13 23:28N 36°46' E 001°03'511.7
2017-Sep-13 23:00N 36°45' E 000°57'611.7
2017-Sep-13 22:30N 36°44' E 000°49'611.6
2017-Sep-13 22:00N 36°43' E 000°42'611.4
2017-Sep-13 21:30N 36°42' E 000°35'611.4
2017-Sep-13 21:00N 36°41' E 000°28'611.3
2017-Sep-13 20:30N 36°40' E 000°21'611.3
2017-Sep-13 20:00N 36°40' E 000°14'711.3
2017-Sep-13 19:25N 36°39' E 000°06'511.3
2017-Sep-13 18:59N 36°38' E 000°00'611.3
2017-Sep-13 18:30N 36°37' W 000°07'611.3
2017-Sep-13 18:00N 36°36' W 000°13'611.3
2017-Sep-13 17:30N 36°35' W 000°20'611.3
2017-Sep-13 17:00N 36°34' W 000°27'611.2
2017-Sep-13 16:30N 36°34' W 000°34'611.1
2017-Sep-13 15:59N 36°33' W 000°41'610.9
2017-Sep-13 15:29N 36°32' W 000°48'511.0
2017-Sep-13 15:00N 36°31' W 000°55'611.1
2017-Sep-13 14:30N 36°30' W 001°01'611.5
2017-Sep-13 13:59N 36°29' W 001°09'611.8
2017-Sep-13 13:29N 36°28' W 001°16'18912.2
2017-Sep-12 21:57N 36°00' W 005°07'612.7
2017-Sep-12 21:30N 35°59' W 005°14'612.9
2017-Sep-12 21:00N 35°58' W 005°22'612.5
2017-Sep-12 20:30N 35°57' W 005°30'7312.0
2017-Sep-12 14:26N 35°58' W 006°60'6810.8
2017-Sep-12 08:09N 36°07' W 008°22'0 0.9
2017-Sep-12 07:59N 36°07' W 008°22'0 0.7
2017-Sep-12 07:30N 36°07' W 008°23'1 2.8
2017-Sep-12 07:00N 36°08' W 008°24'611.6
2017-Sep-12 06:30N 36°11' W 008°30'611.4
2017-Sep-12 06:00N 36°14' W 008°36'1711.4
2017-Sep-12 04:33N 36°23' W 008°53'211.7
2017-Sep-12 04:24N 36°24' W 008°55'511.9
2017-Sep-12 04:00N 36°27' W 008°59'611.6
2017-Sep-12 03:30N 36°30' W 009°06'611.3
2017-Sep-12 03:00N 36°33' W 009°12'510.6
2017-Sep-12 02:30N 36°35' W 009°18'510.5
2017-Sep-12 02:00N 36°39' W 009°22'611.2
2017-Sep-12 01:30N 36°43' W 009°27'611.2
2017-Sep-12 01:00N 36°47' W 009°31'611.5
2017-Sep-12 00:30N 36°52' W 009°34'611.7
2017-Sep-12 00:00N 36°58' W 009°36'611.7
2017-Sep-11 23:30N 37°04' W 009°39'611.5
2017-Sep-11 23:00N 37°09' W 009°41'611.6
2017-Sep-11 22:30N 37°15' W 009°43'612.1
2017-Sep-11 22:00N 37°21' W 009°45'612.0
2017-Sep-11 21:30N 37°26' W 009°46'612.0
2017-Sep-11 21:00N 37°32' W 009°48'611.9
2017-Sep-11 20:30N 37°38' W 009°50'611.7
2017-Sep-11 20:00N 37°44' W 009°52'611.6
2017-Sep-11 19:30N 37°49' W 009°53'611.5
2017-Sep-11 19:00N 37°55' W 009°55'611.7
2017-Sep-11 18:30N 38°01' W 009°56'611.5
2017-Sep-11 18:00N 38°06' W 009°57'611.8
2017-Sep-11 17:30N 38°12' W 009°58'611.6
2017-Sep-11 17:00N 38°18' W 009°59'611.7
2017-Sep-11 16:30N 38°24' W 010°01'612.0
2017-Sep-11 16:00N 38°30' W 010°03'612.7
2017-Sep-11 15:30N 38°36' W 010°04'612.4
2017-Sep-11 15:00N 38°42' W 010°06'612.0
2017-Sep-11 14:30N 38°48' W 010°06'611.7
2017-Sep-11 14:00N 38°54' W 010°06'611.9
2017-Sep-11 13:30N 38°60' W 010°06'612.0
2017-Sep-11 13:00N 39°06' W 010°06'611.8
2017-Sep-11 12:30N 39°12' W 010°06'611.8
2017-Sep-11 12:00N 39°17' W 010°06'611.8
2017-Sep-11 11:30N 39°23' W 010°07'  

Dump ship's entire track history